Time;durP1;ratioP1;P1;durP2;ratioP2;P2;SDS_P1;SDS_P2;PMS_P1;PMS_P2;Temp;Humidity;BMP_temperature;BMP_pressure;BME280_temperature;BME280_humidity;BME280_pressure;Samples;Min_cycle;Max_cycle;Signal;HPM_P1;HPM_P2
2021/12/12 00:00:15;;;;;;;30.08;18.35;;;;;;;;;;4842318;29;20127;-68
2021/12/12 00:02:57;;;;;;;37.25;24.80;;;;;;;;;;4841813;29;20058;-75
2021/12/12 00:05:32;;;;;;;43.63;26.92;;;;;;;;;;4842122;29;20044;-71
2021/12/12 00:07:59;;;;;;;41.80;26.42;;;;;;;;;;4841753;29;20030;-73
2021/12/12 00:10:30;;;;;;;45.33;28.90;;;;;;;;;;4841692;29;20062;-74
2021/12/12 00:13:04;;;;;;;47.92;29.73;;;;;;;;;;4842060;29;20402;-72
2021/12/12 00:15:30;;;;;;;53.15;29.92;;;;;;;;;;4842059;29;20030;-74
2021/12/12 00:17:56;;;;;;;53.08;31.02;;;;;;;;;;4841636;29;20022;-69
2021/12/12 00:20:24;;;;;;;54.55;31.65;;;;;;;;;;4841302;29;20038;-71
2021/12/12 00:22:55;;;;;;;44.80;29.08;;;;;;;;;;4841584;29;20042;-70
2021/12/12 00:25:21;;;;;;;41.38;26.52;;;;;;;;;;4841381;29;20482;-69
2021/12/12 00:27:47;;;;;;;37.72;23.60;;;;;;;;;;4842080;29;20060;-67
2021/12/12 00:30:14;;;;;;;33.65;23.00;;;;;;;;;;4840505;29;20046;-68
2021/12/12 00:32:40;;;;;;;36.03;24.10;;;;;;;;;;4841008;29;20363;-70
2021/12/12 00:35:10;;;;;;;39.33;25.42;;;;;;;;;;4841727;29;20042;-69
2021/12/12 00:37:37;;;;;;;42.75;26.92;;;;;;;;;;4841690;29;20113;-69
2021/12/12 00:40:27;;;;;;;42.13;28.05;;;;;;;;;;4836915;29;20026;-70
2021/12/12 00:42:58;;;;;;;46.58;28.95;;;;;;;;;;4841297;29;20057;-68
2021/12/12 00:45:24;;;;;;;43.15;26.52;;;;;;;;;;4841106;29;20133;-68
2021/12/12 00:47:51;;;;;;;45.75;26.63;;;;;;;;;;4841146;29;20057;-69
2021/12/12 00:50:28;;;;;;;41.80;27.55;;;;;;;;;;4841290;29;20110;-68
2021/12/12 00:52:55;;;;;;;51.53;32.22;;;;;;;;;;4841827;29;20385;-67
2021/12/12 00:55:23;;;;;;;48.50;33.00;;;;;;;;;;4841196;29;20034;-67
2021/12/12 00:57:53;;;;;;;44.03;30.70;;;;;;;;;;4841279;29;20038;-71
2021/12/12 01:00:24;;;;;;;42.47;28.02;;;;;;;;;;4841284;29;20026;-69
2021/12/12 01:02:51;;;;;;;38.67;27.10;;;;;;;;;;4840969;29;20394;-67
2021/12/12 01:05:18;;;;;;;42.25;29.67;;;;;;;;;;4841434;29;20387;-69
2021/12/12 01:07:47;;;;;;;41.33;29.65;;;;;;;;;;4841505;29;20117;-70
2021/12/12 01:10:30;;;;;;;38.75;26.05;;;;;;;;;;4840522;29;20037;-70
2021/12/12 01:12:58;;;;;;;35.03;24.02;;;;;;;;;;4841397;29;20042;-69
2021/12/12 01:15:30;;;;;;;37.92;24.92;;;;;;;;;;4841070;29;20038;-66
2021/12/12 01:18:01;;;;;;;30.48;21.02;;;;;;;;;;4840844;29;20049;-69
2021/12/12 01:20:32;;;;;;;33.15;24.35;;;;;;;;;;4841161;29;20034;-68
2021/12/12 01:23:07;;;;;;;30.75;21.20;;;;;;;;;;4840545;29;20045;-68
2021/12/12 01:25:42;;;;;;;25.27;17.75;;;;;;;;;;4840455;29;20490;-70
2021/12/12 01:28:09;;;;;;;24.05;15.35;;;;;;;;;;4840997;29;20030;-67
2021/12/12 01:30:34;;;;;;;20.10;14.13;;;;;;;;;;4841374;29;20030;-68
2021/12/12 01:33:00;;;;;;;20.15;13.60;;;;;;;;;;4840537;29;20106;-69
2021/12/12 01:35:27;;;;;;;18.77;13.95;;;;;;;;;;4840829;29;20054;-69
2021/12/12 01:40:46;;;;;;;18.48;13.27;;;;;;;;;;4841097;29;20513;-69
2021/12/12 01:43:43;;;;;;;19.70;13.10;;;;;;;;;;4840924;29;20038;-68
2021/12/12 01:46:20;;;;;;;18.35;13.70;;;;;;;;;;4791537;29;20047;-70
2021/12/12 01:48:51;;;;;;;16.85;11.70;;;;;;;;;;4840667;29;20080;-69
2021/12/12 01:51:18;;;;;;;14.43;11.10;;;;;;;;;;4840784;29;20045;-67
2021/12/12 01:53:49;;;;;;;14.18;10.35;;;;;;;;;;4832866;29;20470;-66
2021/12/12 01:56:22;;;;;;;13.00;9.35;;;;;;;;;;4840778;29;20402;-67
2021/12/12 01:58:52;;;;;;;13.85;8.32;;;;;;;;;;4839548;29;20090;-67
2021/12/12 02:01:30;;;;;;;15.13;8.90;;;;;;;;;;4839831;29;20049;-67
2021/12/12 02:04:04;;;;;;;13.45;7.80;;;;;;;;;;4843135;29;20121;-70
2021/12/12 02:06:31;;;;;;;12.50;7.70;;;;;;;;;;4844362;29;20037;-68
2021/12/12 02:08:57;;;;;;;11.00;7.53;;;;;;;;;;4843962;29;20044;-68
2021/12/12 02:11:29;;;;;;;11.10;6.93;;;;;;;;;;4844123;29;20046;-66
2021/12/12 02:13:57;;;;;;;10.27;7.20;;;;;;;;;;4844135;29;20034;-66
2021/12/12 02:16:26;;;;;;;9.65;6.60;;;;;;;;;;4843822;29;20423;-69
2021/12/12 02:18:55;;;;;;;10.65;7.28;;;;;;;;;;4844341;29;20072;-67
2021/12/12 02:21:35;;;;;;;10.38;7.03;;;;;;;;;;4844239;29;20486;-67
2021/12/12 02:37:33;;;;;;;10.05;7.00;;;;;;;;;;4842551;29;20124;-66
2021/12/12 02:39:59;;;;;;;13.63;8.25;;;;;;;;;;4843606;29;20030;-68
2021/12/12 02:42:26;;;;;;;14.25;9.82;;;;;;;;;;4843756;29;20046;-68
2021/12/12 02:44:57;;;;;;;13.13;8.90;;;;;;;;;;4843592;29;20046;-67
2021/12/12 02:47:32;;;;;;;13.68;8.98;;;;;;;;;;4843732;29;20545;-67
2021/12/12 02:50:11;;;;;;;16.25;11.05;;;;;;;;;;4843285;29;20056;-67
2021/12/12 02:52:39;;;;;;;17.42;11.68;;;;;;;;;;4824448;29;20046;-68
2021/12/12 02:55:15;;;;;;;21.02;13.13;;;;;;;;;;4825323;29;20027;-67
2021/12/12 02:57:41;;;;;;;22.55;13.88;;;;;;;;;;4825177;29;20034;-69
2021/12/12 03:00:12;;;;;;;20.17;13.50;;;;;;;;;;4829692;29;20392;-70
2021/12/12 03:02:45;;;;;;;20.45;13.10;;;;;;;;;;4859259;29;20050;-72
2021/12/12 03:05:17;;;;;;;18.40;12.93;;;;;;;;;;4861103;29;20493;-70
2021/12/12 03:07:45;;;;;;;19.83;12.27;;;;;;;;;;4861009;29;20082;-74
2021/12/12 03:10:15;;;;;;;18.55;12.77;;;;;;;;;;4861851;29;20022;-68
2021/12/12 03:12:41;;;;;;;18.48;12.25;;;;;;;;;;4861687;29;20064;-67
2021/12/12 03:15:20;;;;;;;20.23;12.93;;;;;;;;;;4860427;29;20026;-66
2021/12/12 03:17:49;;;;;;;19.58;13.23;;;;;;;;;;4849310;29;20125;-70
2021/12/12 03:20:33;;;;;;;19.10;12.88;;;;;;;;;;4841908;29;20026;-73
2021/12/12 03:23:07;;;;;;;17.65;12.68;;;;;;;;;;4841930;29;20034;-68
2021/12/12 03:25:37;;;;;;;16.80;11.15;;;;;;;;;;4838799;29;20042;-70
2021/12/12 03:28:07;;;;;;;18.38;12.68;;;;;;;;;;4831574;29;20458;-68
2021/12/12 03:30:37;;;;;;;20.23;13.23;;;;;;;;;;4842168;29;20100;-67
2021/12/12 03:33:04;;;;;;;22.27;14.82;;;;;;;;;;4842425;29;20030;-73
2021/12/12 03:35:31;;;;;;;21.25;14.50;;;;;;;;;;4842268;29;20750;-68
2021/12/12 03:37:57;;;;;;;21.45;14.75;;;;;;;;;;4841981;29;20493;-69
2021/12/12 03:40:28;;;;;;;17.35;12.57;;;;;;;;;;4842817;29;20037;-69
2021/12/12 03:42:57;;;;;;;19.48;13.25;;;;;;;;;;4841429;29;20042;-70
2021/12/12 03:45:24;;;;;;;21.23;14.23;;;;;;;;;;4842316;29;20106;-70
2021/12/12 03:48:06;;;;;;;21.33;14.02;;;;;;;;;;4842837;29;20075;-68
2021/12/12 03:50:35;;;;;;;21.83;15.02;;;;;;;;;;4842335;29;20109;-67
2021/12/12 03:53:02;;;;;;;18.90;13.05;;;;;;;;;;4841987;29;20041;-69
2021/12/12 03:55:29;;;;;;;17.25;12.20;;;;;;;;;;4842106;29;20033;-68
2021/12/12 03:57:57;;;;;;;17.67;12.63;;;;;;;;;;4842213;29;20038;-66
2021/12/12 04:00:32;;;;;;;17.75;12.02;;;;;;;;;;4841848;29;20041;-66
2021/12/12 04:02:59;;;;;;;16.73;10.93;;;;;;;;;;4842099;29;20088;-68
2021/12/12 04:05:25;;;;;;;14.77;10.63;;;;;;;;;;4842210;29;20077;-68
2021/12/12 04:07:51;;;;;;;14.35;10.07;;;;;;;;;;4841606;29;20501;-68
2021/12/12 04:10:20;;;;;;;13.73;9.35;;;;;;;;;;4840649;29;20034;-68
2021/12/12 04:12:48;;;;;;;12.93;8.68;;;;;;;;;;4840352;29;20701;-68
2021/12/12 04:15:15;;;;;;;12.73;8.90;;;;;;;;;;4841800;29;20109;-67
2021/12/12 04:17:42;;;;;;;10.98;8.00;;;;;;;;;;4841713;29;20053;-68
2021/12/12 04:20:29;;;;;;;11.95;8.50;;;;;;;;;;4842260;29;20393;-67
2021/12/12 04:22:55;;;;;;;10.02;6.82;;;;;;;;;;4841784;29;20405;-67
2021/12/12 04:25:22;;;;;;;10.27;6.38;;;;;;;;;;4841595;29;20034;-67
2021/12/12 04:27:50;;;;;;;9.07;6.10;;;;;;;;;;4840104;29;20442;-66
2021/12/12 04:30:17;;;;;;;10.25;6.40;;;;;;;;;;4841118;29;20029;-67
2021/12/12 04:32:44;;;;;;;9.88;6.60;;;;;;;;;;4842015;29;20045;-69
2021/12/12 04:35:20;;;;;;;12.25;6.13;;;;;;;;;;4841826;29;20073;-68
2021/12/12 04:37:47;;;;;;;9.65;6.30;;;;;;;;;;4842016;29;20418;-67
2021/12/12 04:40:17;;;;;;;7.95;5.75;;;;;;;;;;4841939;29;20104;-67
2021/12/12 04:42:46;;;;;;;8.63;5.70;;;;;;;;;;4841536;29;20125;-67
2021/12/12 04:45:22;;;;;;;8.05;5.55;;;;;;;;;;4841801;29;20026;-66
2021/12/12 04:50:53;;;;;;;7.65;5.20;;;;;;;;;;4841763;29;20050;-68
2021/12/12 04:53:30;;;;;;;6.90;5.10;;;;;;;;;;4842228;29;20375;-66
2021/12/12 04:56:10;;;;;;;7.93;5.93;;;;;;;;;;4841546;29;20038;-68
2021/12/12 04:58:49;;;;;;;8.82;5.95;;;;;;;;;;4841574;29;20068;-72
2021/12/12 05:01:41;;;;;;;11.93;7.95;;;;;;;;;;4841311;29;20044;-70
2021/12/12 05:04:14;;;;;;;10.60;7.03;;;;;;;;;;4834201;29;20106;-67
2021/12/12 05:06:46;;;;;;;10.13;7.80;;;;;;;;;;4841774;29;20050;-74
2021/12/12 05:09:27;;;;;;;16.67;10.57;;;;;;;;;;4841823;29;20040;-73
2021/12/12 05:12:22;;;;;;;16.23;10.20;;;;;;;;;;4841570;29;20049;-72
2021/12/12 05:15:05;;;;;;;17.23;12.57;;;;;;;;;;4841195;29;20098;-71
2021/12/12 05:17:41;;;;;;;21.25;14.23;;;;;;;;;;4841638;29;20034;-68
2021/12/12 05:20:12;;;;;;;18.65;13.10;;;;;;;;;;4841285;29;20065;-67
2021/12/12 05:22:45;;;;;;;18.25;12.95;;;;;;;;;;4841510;29;20435;-69
2021/12/12 05:25:23;;;;;;;18.90;11.93;;;;;;;;;;4841630;29;20049;-70
2021/12/12 05:27:52;;;;;;;16.10;11.57;;;;;;;;;;4841093;29;20038;-67
2021/12/12 05:30:24;;;;;;;16.38;11.07;;;;;;;;;;4841876;29;20042;-70
2021/12/12 05:32:52;;;;;;;16.42;11.00;;;;;;;;;;4841923;29;20038;-67
2021/12/12 05:35:22;;;;;;;14.27;10.13;;;;;;;;;;4841770;29;20427;-70
2021/12/12 05:37:51;;;;;;;15.40;9.88;;;;;;;;;;4844489;29;20435;-67
2021/12/12 05:40:20;;;;;;;14.18;9.75;;;;;;;;;;4845510;29;20049;-67
2021/12/12 05:42:46;;;;;;;10.80;7.65;;;;;;;;;;4844103;29;20041;-68
2021/12/12 05:45:14;;;;;;;10.23;7.20;;;;;;;;;;4845428;29;20038;-68
2021/12/12 05:47:40;;;;;;;9.10;6.35;;;;;;;;;;4845512;29;20651;-67
2021/12/12 05:50:09;;;;;;;7.93;5.40;;;;;;;;;;4845285;29;20026;-68
2021/12/12 05:52:35;;;;;;;7.82;4.60;;;;;;;;;;4844000;29;20045;-67
2021/12/12 05:55:04;;;;;;;9.38;6.80;;;;;;;;;;4845167;29;20030;-72
2021/12/12 05:57:30;;;;;;;9.52;6.30;;;;;;;;;;4838930;29;20041;-73
2021/12/12 05:59:58;;;;;;;7.50;5.40;;;;;;;;;;4827500;29;20044;-73
2021/12/12 06:02:26;;;;;;;8.60;5.70;;;;;;;;;;4826561;29;20085;-70
2021/12/12 06:04:55;;;;;;;9.23;5.90;;;;;;;;;;4826655;29;20042;-70
2021/12/12 06:07:22;;;;;;;7.75;5.68;;;;;;;;;;4826962;29;20046;-71
2021/12/12 06:09:49;;;;;;;8.30;5.53;;;;;;;;;;4826797;29;20027;-72
2021/12/12 06:12:17;;;;;;;9.38;5.97;;;;;;;;;;4826316;29;20041;-71
2021/12/12 06:14:44;;;;;;;10.10;6.78;;;;;;;;;;4831522;29;20030;-71
2021/12/12 06:17:13;;;;;;;9.23;5.90;;;;;;;;;;4845258;29;20133;-71
2021/12/12 06:19:40;;;;;;;9.82;6.07;;;;;;;;;;4844493;29;20030;-69
2021/12/12 06:22:08;;;;;;;10.27;6.22;;;;;;;;;;4844860;29;20063;-72
2021/12/12 06:24:35;;;;;;;13.05;7.90;;;;;;;;;;4839271;29;20032;-72
2021/12/12 06:27:14;;;;;;;11.93;8.35;;;;;;;;;;4833095;29;20049;-72
2021/12/12 06:29:42;;;;;;;12.68;8.63;;;;;;;;;;4837802;29;20044;-75
2021/12/12 06:32:08;;;;;;;11.95;7.80;;;;;;;;;;4844230;29;20038;-71
2021/12/12 06:34:34;;;;;;;11.65;7.78;;;;;;;;;;4844390;29;20050;-72
2021/12/12 06:37:02;;;;;;;11.95;7.63;;;;;;;;;;4844368;29;20057;-70
2021/12/12 06:39:29;;;;;;;11.90;7.72;;;;;;;;;;4844418;29;20034;-71
2021/12/12 06:41:55;;;;;;;13.35;9.80;;;;;;;;;;4844599;29;20090;-70
2021/12/12 06:44:21;;;;;;;14.18;9.18;;;;;;;;;;4844403;29;20394;-71
2021/12/12 06:46:47;;;;;;;14.32;8.88;;;;;;;;;;4844537;29;20045;-70
2021/12/12 06:49:16;;;;;;;13.45;10.18;;;;;;;;;;4843473;29;20498;-71
2021/12/12 06:51:57;;;;;;;18.65;12.48;;;;;;;;;;4844607;29;20032;-71
2021/12/12 06:54:27;;;;;;;18.35;11.40;;;;;;;;;;4843446;29;20070;-70
2021/12/12 06:56:55;;;;;;;17.30;11.00;;;;;;;;;;4844202;29;20085;-71
2021/12/12 06:59:26;;;;;;;16.25;10.63;;;;;;;;;;4844271;29;20498;-70
2021/12/12 07:01:53;;;;;;;15.98;10.75;;;;;;;;;;4844182;29;20077;-70
2021/12/12 07:04:19;;;;;;;17.65;11.90;;;;;;;;;;4844065;29;20042;-76
2021/12/12 07:06:48;;;;;;;35.30;18.40;;;;;;;;;;4843924;29;20122;-78
2021/12/12 07:09:15;;;;;;;17.60;11.73;;;;;;;;;;4843268;29;20037;-72
2021/12/12 07:11:42;;;;;;;17.10;9.82;;;;;;;;;;4843757;29;20401;-72
2021/12/12 07:14:11;;;;;;;15.38;10.23;;;;;;;;;;4843990;29;20038;-72
2021/12/12 07:16:38;;;;;;;15.50;10.48;;;;;;;;;;4855649;29;20060;-71
2021/12/12 07:19:05;;;;;;;13.70;9.57;;;;;;;;;;4862086;29;20041;-74
2021/12/12 07:21:31;;;;;;;21.50;10.20;;;;;;;;;;4861916;29;20042;-71
2021/12/12 07:24:00;;;;;;;11.68;8.20;;;;;;;;;;4862004;29;20045;-70
2021/12/12 07:26:27;;;;;;;12.95;8.25;;;;;;;;;;4861837;29;20129;-69
2021/12/12 07:28:56;;;;;;;13.77;8.70;;;;;;;;;;4862235;29;20068;-68
2021/12/12 07:31:27;;;;;;;12.82;8.13;;;;;;;;;;4862265;29;20034;-69
2021/12/12 07:33:56;;;;;;;12.57;8.27;;;;;;;;;;4843175;29;20030;-69
2021/12/12 07:36:23;;;;;;;14.43;7.97;;;;;;;;;;4843291;29;20129;-70
2021/12/12 07:38:58;;;;;;;14.35;9.60;;;;;;;;;;4843409;29;20044;-70
2021/12/12 07:41:27;;;;;;;17.75;10.02;;;;;;;;;;4843519;29;20470;-72
2021/12/12 07:43:54;;;;;;;15.63;9.73;;;;;;;;;;4843497;29;20555;-71
2021/12/12 07:46:21;;;;;;;13.52;8.90;;;;;;;;;;4843279;29;20655;-71
2021/12/12 07:48:50;;;;;;;14.13;9.23;;;;;;;;;;4846333;29;20053;-70
2021/12/12 07:51:17;;;;;;;12.27;8.25;;;;;;;;;;4861519;29;20041;-68
2021/12/12 07:53:43;;;;;;;12.52;7.50;;;;;;;;;;4861578;29;20037;-68
2021/12/12 07:56:10;;;;;;;11.20;7.43;;;;;;;;;;4861413;29;20508;-68
2021/12/12 07:58:36;;;;;;;12.00;8.07;;;;;;;;;;4861518;29;20668;-68
2021/12/12 08:01:05;;;;;;;12.80;7.70;;;;;;;;;;4861450;29;20046;-68
2021/12/12 08:03:34;;;;;;;10.77;7.63;;;;;;;;;;4861161;29;20045;-69
2021/12/12 08:06:01;;;;;;;10.75;8.32;;;;;;;;;;4861025;29;20112;-69
2021/12/12 08:08:28;;;;;;;10.82;7.93;;;;;;;;;;4861212;29;20050;-71
2021/12/12 08:10:56;;;;;;;10.68;6.90;;;;;;;;;;4849731;29;20394;-69
2021/12/12 08:13:22;;;;;;;12.77;7.13;;;;;;;;;;4839660;29;20041;-72
2021/12/12 08:15:49;;;;;;;10.30;7.80;;;;;;;;;;4832489;29;20039;-68
2021/12/12 08:18:18;;;;;;;10.77;7.50;;;;;;;;;;4836095;29;20177;-70
2021/12/12 08:20:49;;;;;;;9.40;6.38;;;;;;;;;;4838403;29;20035;-69
2021/12/12 08:23:16;;;;;;;7.20;5.13;;;;;;;;;;4842440;29;20054;-68
2021/12/12 08:25:44;;;;;;;8.35;4.72;;;;;;;;;;4842153;29;20041;-70
2021/12/12 08:28:13;;;;;;;6.55;4.20;;;;;;;;;;4842585;29;20036;-70
2021/12/12 08:30:39;;;;;;;7.38;4.60;;;;;;;;;;4842363;29;20040;-69
2021/12/12 08:33:07;;;;;;;6.88;4.43;;;;;;;;;;4841846;29;20166;-70
2021/12/12 08:35:35;;;;;;;6.57;4.20;;;;;;;;;;4842094;29;20074;-67
2021/12/12 08:38:02;;;;;;;5.75;3.22;;;;;;;;;;4855318;29;20038;-69
2021/12/12 08:40:33;;;;;;;7.30;3.75;;;;;;;;;;4860349;29;20028;-69
2021/12/12 08:43:00;;;;;;;5.55;3.40;;;;;;;;;;4860521;29;20393;-69
2021/12/12 08:45:29;;;;;;;3.15;2.10;;;;;;;;;;4860679;29;20437;-69
2021/12/12 08:47:58;;;;;;;5.82;2.53;;;;;;;;;;4874673;29;20342;-72
2021/12/12 08:50:29;;;;;;;6.25;3.42;;;;;;;;;;4838342;29;20389;-72
2021/12/12 08:52:58;;;;;;;12.23;3.55;;;;;;;;;;4841880;29;20038;-71
2021/12/12 08:55:32;;;;;;;5.97;3.10;;;;;;;;;;4841351;29;20082;-72
2021/12/12 08:58:14;;;;;;;5.88;3.00;;;;;;;;;;4840007;29;20073;-70
2021/12/12 09:00:58;;;;;;;6.00;3.00;;;;;;;;;;4840193;29;20037;-72
2021/12/12 09:03:40;;;;;;;4.78;2.80;;;;;;;;;;4840456;29;20068;-72
2021/12/12 09:06:09;;;;;;;18.70;3.67;;;;;;;;;;4841420;29;20073;-73
2021/12/12 09:08:57;;;;;;;6.07;2.78;;;;;;;;;;4841648;29;20030;-71
2021/12/12 09:11:32;;;;;;;7.85;3.35;;;;;;;;;;4841169;29;20469;-70
2021/12/12 09:14:10;;;;;;;4.90;2.50;;;;;;;;;;4842033;29;20034;-75
2021/12/12 09:16:46;;;;;;;6.85;3.33;;;;;;;;;;4839762;29;20071;-72
2021/12/12 09:19:18;;;;;;;10.95;2.80;;;;;;;;;;4839839;29;20062;-72
2021/12/12 09:21:51;;;;;;;7.43;2.70;;;;;;;;;;4841868;29;20049;-75
2021/12/12 09:24:56;;;;;;;7.55;2.80;;;;;;;;;;4841822;29;20038;-74
2021/12/12 09:27:41;;;;;;;5.82;3.47;;;;;;;;;;4841691;29;20497;-71
2021/12/12 09:30:23;;;;;;;14.27;3.00;;;;;;;;;;4841322;29;20034;-71
2021/12/12 09:33:01;;;;;;;9.85;3.45;;;;;;;;;;4841849;29;20117;-74
2021/12/12 09:35:29;;;;;;;7.10;2.92;;;;;;;;;;4841691;29;20038;-71
2021/12/12 09:37:55;;;;;;;7.78;3.50;;;;;;;;;;4841500;29;20034;-73
2021/12/12 09:40:52;;;;;;;5.63;3.40;;;;;;;;;;4840218;29;20046;-73
2021/12/12 09:43:26;;;;;;;6.55;3.25;;;;;;;;;;4840583;29;20064;-70
2021/12/12 09:46:00;;;;;;;7.45;3.13;;;;;;;;;;4833281;29;20095;-69
2021/12/12 09:52:00;;;;;;;7.03;3.55;;;;;;;;;;4836108;29;20120;-69
2021/12/12 09:54:46;;;;;;;8.45;3.63;;;;;;;;;;4839876;29;20045;-70
2021/12/12 09:57:19;;;;;;;11.40;3.10;;;;;;;;;;4841082;29;20042;-68
2021/12/12 10:00:06;;;;;;;7.97;2.90;;;;;;;;;;4841261;29;20042;-70
2021/12/12 10:02:41;;;;;;;7.57;2.10;;;;;;;;;;4840552;29;20049;-71
2021/12/12 10:05:25;;;;;;;12.52;2.83;;;;;;;;;;4845643;29;20370;-72
2021/12/12 10:08:03;;;;;;;8.55;2.00;;;;;;;;;;4859611;29;20042;-72
2021/12/12 10:10:36;;;;;;;3.90;2.70;;;;;;;;;;4859618;29;20044;-72
2021/12/12 10:13:24;;;;;;;8.15;2.70;;;;;;;;;;4858717;29;20401;-70
2021/12/12 10:15:59;;;;;;;8.45;3.15;;;;;;;;;;4823180;29;20042;-69
2021/12/12 10:18:49;;;;;;;4.03;2.55;;;;;;;;;;4822900;29;20424;-70
2021/12/12 10:21:36;;;;;;;5.50;3.08;;;;;;;;;;4821490;29;20046;-71
2021/12/12 10:24:28;;;;;;;9.40;3.10;;;;;;;;;;4822205;29;20088;-71
2021/12/12 10:27:20;;;;;;;10.15;2.65;;;;;;;;;;4825724;29;20042;-72
2021/12/12 10:30:01;;;;;;;7.28;3.50;;;;;;;;;;4825797;29;20103;-71
2021/12/12 10:32:30;;;;;;;9.15;2.67;;;;;;;;;;4826209;29;20042;-72
2021/12/12 10:35:09;;;;;;;14.48;2.72;;;;;;;;;;4825716;29;20091;-68
2021/12/12 10:37:48;;;;;;;4.95;2.58;;;;;;;;;;4826154;29;20046;-71
2021/12/12 10:40:29;;;;;;;4.30;2.15;;;;;;;;;;4825915;29;20375;-74
2021/12/12 10:43:03;;;;;;;8.52;3.15;;;;;;;;;;4826066;29;20057;-72
2021/12/12 10:45:32;;;;;;;;;;;;;;;;;;4826469;29;20113;-72
2021/12/12 10:48:06;;;;;;;7.40;2.75;;;;;;;;;;4825473;29;19931;-71
2021/12/12 10:50:43;;;;;;;10.30;2.30;;;;;;;;;;4825995;29;20066;-71
2021/12/12 10:53:19;;;;;;;7.57;2.60;;;;;;;;;;4825823;29;20062;-70
2021/12/12 10:55:55;;;;;;;8.85;2.58;;;;;;;;;;4825818;29;20042;-70
2021/12/12 10:58:28;;;;;;;8.77;2.50;;;;;;;;;;4825556;29;20079;-71
2021/12/12 11:01:02;;;;;;;5.32;2.83;;;;;;;;;;4825397;29;20359;-73
2021/12/12 11:03:31;;;;;;;;;;;;;;;;;;4825873;29;20058;-70
2021/12/12 11:06:08;;;;;;;7.68;2.40;;;;;;;;;;4825348;29;19974;-71
2021/12/12 11:08:39;;;;;;;18.17;3.55;;;;;;;;;;4825236;29;20081;-71
2021/12/12 11:11:21;;;;;;;11.70;2.70;;;;;;;;;;4825231;29;20086;-70
2021/12/12 11:13:58;;;;;;;4.03;1.50;;;;;;;;;;4839514;29;20058;-71
2021/12/12 11:16:33;;;;;;;3.05;1.70;;;;;;;;;;4843698;29;20034;-70
2021/12/12 11:19:25;;;;;;;3.72;1.88;;;;;;;;;;4843670;29;20371;-73
2021/12/12 11:22:00;;;;;;;6.25;2.17;;;;;;;;;;4842351;29;20073;-71
2021/12/12 11:24:47;;;;;;;6.18;1.55;;;;;;;;;;4843547;29;20050;-72
2021/12/12 11:27:19;;;;;;;3.75;1.55;;;;;;;;;;4843684;29;20474;-72
2021/12/12 11:29:50;;;;;;;3.67;2.08;;;;;;;;;;4843770;29;20086;-70
2021/12/12 11:32:25;;;;;;;6.85;2.80;;;;;;;;;;4844874;29;20041;-70
2021/12/12 11:34:53;;;;;;;5.40;2.50;;;;;;;;;;4861790;29;20482;-70
2021/12/12 11:37:51;;;;;;;8.45;2.80;;;;;;;;;;4861840;29;20029;-70
2021/12/12 11:40:29;;;;;;;6.90;2.20;;;;;;;;;;4848573;29;20068;-73
2021/12/12 11:43:28;;;;;;;6.97;2.63;;;;;;;;;;4861371;29;20037;-70
2021/12/12 11:46:02;;;;;;;6.03;1.90;;;;;;;;;;4861601;29;20038;-70
2021/12/12 11:48:27;;;;;;;;;;;;;;;;;;4861814;29;20379;-70
2021/12/12 11:50:56;;;;;;;6.50;2.67;;;;;;;;;;4861328;29;19919;-71
2021/12/12 11:53:28;;;;;;;7.78;2.53;;;;;;;;;;4861375;29;20045;-71
2021/12/12 11:56:04;;;;;;;6.88;3.97;;;;;;;;;;4861638;29;20030;-71
2021/12/12 11:58:53;;;;;;;10.90;4.50;;;;;;;;;;4861305;29;20034;-72
2021/12/12 12:01:28;;;;;;;8.32;3.25;;;;;;;;;;4854488;29;20056;-73
2021/12/12 12:04:12;;;;;;;8.68;4.40;;;;;;;;;;4861113;29;20054;-70
2021/12/12 12:07:02;;;;;;;8.77;3.75;;;;;;;;;;4861078;29;20497;-70
2021/12/12 12:09:53;;;;;;;6.88;2.80;;;;;;;;;;4861080;29;20414;-73
2021/12/12 12:12:28;;;;;;;10.63;4.28;;;;;;;;;;4860992;29;20075;-71
2021/12/12 12:15:31;;;;;;;8.23;3.58;;;;;;;;;;4860766;29;20041;-73
2021/12/12 12:18:08;;;;;;;7.93;4.13;;;;;;;;;;4860850;29;20034;-71
2021/12/12 12:20:54;;;;;;;7.93;3.80;;;;;;;;;;4861113;29;20461;-70
2021/12/12 12:24:37;;;;;;;8.93;3.50;;;;;;;;;;4860818;29;20042;-71
2021/12/12 12:26:56;;;;;;;8.50;3.30;;;;;;;;;;4850908;29;20497;-71
2021/12/12 12:29:21;;;;;;;5.25;2.50;;;;;;;;;;4860144;29;20029;-71
2021/12/12 12:32:24;;;;;;;5.13;2.90;;;;;;;;;;4860861;29;20040;-72
2021/12/12 12:35:09;;;;;;;7.80;3.65;;;;;;;;;;4860871;29;20106;-72
2021/12/12 12:37:56;;;;;;;8.93;3.13;;;;;;;;;;4860667;29;20038;-71
2021/12/12 12:41:03;;;;;;;8.70;3.38;;;;;;;;;;4860617;29;20117;-70
2021/12/12 12:44:05;;;;;;;11.23;4.68;;;;;;;;;;4821441;29;20049;-71
2021/12/12 12:47:08;;;;;;;30.35;13.55;;;;;;;;;;4821059;29;20038;-70
2021/12/12 12:50:11;;;;;;;25.33;14.07;;;;;;;;;;4859338;29;20053;-71
2021/12/12 12:53:01;;;;;;;17.13;8.70;;;;;;;;;;4860261;29;20054;-70
2021/12/12 12:55:41;;;;;;;10.75;4.97;;;;;;;;;;4860259;29;20505;-71
2021/12/12 12:58:25;;;;;;;8.30;4.13;;;;;;;;;;4860377;29;20501;-71
2021/12/12 13:00:57;;;;;;;8.82;4.03;;;;;;;;;;4859840;29;20037;-72
2021/12/12 13:04:07;;;;;;;7.25;3.28;;;;;;;;;;4860020;29;20060;-71
2021/12/12 13:07:26;;;;;;;9.57;3.40;;;;;;;;;;4860106;29;20490;-71
2021/12/12 13:10:07;;;;;;;15.55;7.53;;;;;;;;;;4821450;29;20443;-71
2021/12/12 13:12:51;;;;;;;6.07;3.28;;;;;;;;;;4860376;29;20118;-70
2021/12/12 13:15:32;;;;;;;;;;;;;;;;;;4860439;29;20127;-70
2021/12/12 13:18:35;;;;;;;8.93;4.32;;;;;;;;;;4860268;29;20469;-70
2021/12/12 13:21:32;;;;;;;11.23;5.55;;;;;;;;;;4873767;29;20084;-72
2021/12/12 13:24:28;;;;;;;12.15;5.80;;;;;;;;;;4859776;29;20060;-75
2021/12/12 13:27:13;;;;;;;8.90;4.93;;;;;;;;;;4859999;29;20034;-73
2021/12/12 13:30:03;;;;;;;15.63;5.13;;;;;;;;;;4859738;29;20097;-70
2021/12/12 13:32:50;;;;;;;11.23;3.83;;;;;;;;;;4860526;29;20385;-71
2021/12/12 13:35:16;;;;;;;19.90;8.88;;;;;;;;;;4859757;29;20033;-71
2021/12/12 13:38:10;;;;;;;12.50;6.25;;;;;;;;;;4859989;29;20085;-70
2021/12/12 13:41:14;;;;;;;17.42;7.32;;;;;;;;;;4859780;29;20088;-71
2021/12/12 13:43:54;;;;;;;8.35;3.63;;;;;;;;;;4859479;29;20049;-71
2021/12/12 13:47:02;;;;;;;11.13;5.05;;;;;;;;;;4859494;29;20038;-71
2021/12/12 13:49:35;;;;;;;12.90;5.07;;;;;;;;;;4854496;29;20048;-72
2021/12/12 13:52:20;;;;;;;11.55;5.63;;;;;;;;;;4859996;29;20477;-74
2021/12/12 13:54:52;;;;;;;7.22;4.03;;;;;;;;;;4859700;29;20086;-69
2021/12/12 13:57:33;;;;;;;12.57;5.20;;;;;;;;;;4859240;29;20045;-70
2021/12/12 14:00:11;;;;;;;8.95;4.50;;;;;;;;;;4862691;29;20473;-72
2021/12/12 14:02:40;;;;;;;6.25;3.72;;;;;;;;;;4863035;29;20065;-70
2021/12/12 14:05:15;;;;;;;6.20;3.53;;;;;;;;;;4863282;29;20049;-69
2021/12/12 14:08:05;;;;;;;7.57;4.13;;;;;;;;;;4862989;29;20090;-70
2021/12/12 14:10:39;;;;;;;7.20;4.43;;;;;;;;;;4862842;29;20065;-69
2021/12/12 14:13:19;;;;;;;9.75;5.13;;;;;;;;;;4862312;29;20088;-71
2021/12/12 14:16:08;;;;;;;14.75;5.72;;;;;;;;;;4862877;29;20042;-71
2021/12/12 14:18:40;;;;;;;14.00;6.45;;;;;;;;;;4862998;29;20048;-73
2021/12/12 14:21:06;;;;;;;13.43;5.20;;;;;;;;;;4862856;29;20548;-74
2021/12/12 14:23:35;;;;;;;9.52;4.38;;;;;;;;;;4862971;29;20030;-71
2021/12/12 14:26:16;;;;;;;12.75;4.88;;;;;;;;;;4862668;29;20052;-70
2021/12/12 14:28:50;;;;;;;6.95;3.20;;;;;;;;;;4862775;29;20042;-73
2021/12/12 14:31:22;;;;;;;12.00;3.70;;;;;;;;;;4863058;29;20044;-72
2021/12/12 14:33:55;;;;;;;12.98;4.10;;;;;;;;;;4862963;29;20046;-70
2021/12/12 14:36:26;;;;;;;6.90;3.78;;;;;;;;;;4862971;29;20061;-72
2021/12/12 14:38:53;;;;;;;6.28;3.42;;;;;;;;;;4863203;29;20435;-73
2021/12/12 14:41:34;;;;;;;5.70;2.95;;;;;;;;;;4863242;29;20030;-76
2021/12/12 14:44:05;;;;;;;7.18;3.20;;;;;;;;;;4862681;29;20108;-76
2021/12/12 14:46:40;;;;;;;7.40;3.80;;;;;;;;;;4862826;29;20093;-73
2021/12/12 14:49:18;;;;;;;7.90;3.78;;;;;;;;;;4862357;29;20452;-71
2021/12/12 14:52:16;;;;;;;8.30;3.92;;;;;;;;;;4862114;29;20529;-70
2021/12/12 14:54:47;;;;;;;14.13;3.95;;;;;;;;;;4857550;29;20481;-71
2021/12/12 14:57:17;;;;;;;6.85;3.58;;;;;;;;;;4862696;29;20126;-71
2021/12/12 14:59:46;;;;;;;8.65;4.60;;;;;;;;;;4862537;29;20097;-71
2021/12/12 15:02:21;;;;;;;15.25;5.13;;;;;;;;;;4862522;29;20077;-71
2021/12/12 15:04:57;;;;;;;11.88;6.20;;;;;;;;;;4837497;29;20038;-69
2021/12/12 15:07:25;;;;;;;9.73;6.75;;;;;;;;;;4843173;29;20042;-71
2021/12/12 15:09:56;;;;;;;15.27;8.75;;;;;;;;;;4842185;29;20072;-70
2021/12/12 15:12:29;;;;;;;15.52;8.93;;;;;;;;;;4842654;29;20093;-71
2021/12/12 15:14:58;;;;;;;22.23;10.20;;;;;;;;;;4842939;29;20152;-70
2021/12/12 15:17:26;;;;;;;31.58;9.98;;;;;;;;;;4842576;29;20089;-69
2021/12/12 15:19:57;;;;;;;17.08;8.20;;;;;;;;;;4841896;29;20038;-71
2021/12/12 15:22:33;;;;;;;15.63;7.68;;;;;;;;;;4842971;29;20037;-71
2021/12/12 15:25:00;;;;;;;16.00;7.75;;;;;;;;;;4843240;29;20503;-71
2021/12/12 15:27:34;;;;;;;17.60;9.05;;;;;;;;;;4843090;29;20074;-69
2021/12/12 15:30:05;;;;;;;10.80;7.68;;;;;;;;;;4842167;29;20037;-72
2021/12/12 15:32:32;;;;;;;16.75;7.05;;;;;;;;;;4842668;29;20036;-72
2021/12/12 15:35:08;;;;;;;15.20;7.07;;;;;;;;;;4842420;29;20034;-71
2021/12/12 15:37:37;;;;;;;21.20;7.65;;;;;;;;;;4843267;29;20394;-71